createdAt,value
2024-03-13T00:00:05.748Z,96284.50
2024-03-13T00:02:43.476Z,96275.53
2024-03-13T00:05:14.228Z,96277.19
2024-03-13T00:07:44.992Z,96279.81
2024-03-13T00:10:16.072Z,96276.38
2024-03-13T00:12:46.835Z,96277.63
2024-03-13T00:15:20.038Z,96279.31
2024-03-13T00:17:50.760Z,96271.53
2024-03-13T00:20:21.363Z,96268.06
2024-03-13T00:22:52.071Z,96279.66
2024-03-13T00:25:22.858Z,96266.75
2024-03-13T00:27:54.214Z,96276.25
2024-03-13T00:30:27.490Z,96284.56
2024-03-13T00:32:58.599Z,96279.31
2024-03-13T00:35:29.280Z,96276.56
2024-03-13T00:38:00.965Z,96275.53
2024-03-13T00:40:31.675Z,96272.56
2024-03-13T00:43:02.326Z,96273.69
2024-03-13T00:45:35.507Z,96273.16
2024-03-13T00:48:06.528Z,96271.97
2024-03-13T00:50:37.161Z,96267.97
2024-03-13T00:53:10.243Z,96272.94
2024-03-13T00:55:40.771Z,96270.97
2024-03-13T00:58:11.746Z,96273.41
2024-03-13T01:00:44.984Z,96266.28
2024-03-13T01:03:15.583Z,96265.28
2024-03-13T01:05:46.216Z,96276.88
2024-03-13T01:08:16.748Z,96277.91
2024-03-13T01:10:47.583Z,96272.59
2024-03-13T01:13:20.334Z,96268.31
2024-03-13T01:15:53.690Z,96266.63
2024-03-13T01:18:25.744Z,96263.34
2024-03-13T01:20:56.822Z,96272.09
2024-03-13T01:23:27.648Z,96266.81
2024-03-13T01:26:01.105Z,96271.28
2024-03-13T01:28:31.682Z,96254.75
2024-03-13T01:31:07.578Z,96260.03
2024-03-13T01:33:39.808Z,96262.06
2024-03-13T01:36:11.368Z,96265.53
2024-03-13T01:38:39.458Z,96269.81
2024-03-13T01:41:37.260Z,96262.06
2024-03-13T01:44:20.394Z,96252.47
2024-03-13T01:47:05.855Z,96265.88
2024-03-13T01:49:48.798Z,96262.06
2024-03-13T01:52:34.367Z,96255.75
2024-03-13T01:55:11.977Z,96252.47
2024-03-13T01:57:55.656Z,96262.56
2024-03-13T02:00:39.595Z,96272.66
2024-03-13T02:03:15.154Z,96259.25
2024-03-13T02:05:46.641Z,96253.78
2024-03-13T02:08:21.281Z,96258.06
2024-03-13T02:10:52.011Z,96259.06
2024-03-13T02:13:22.822Z,96259.06
2024-03-13T02:15:53.661Z,96259.06
2024-03-13T02:18:31.170Z,96259.06
2024-03-13T02:21:02.700Z,96267.81
2024-03-13T02:23:35.965Z,96266.19
2024-03-13T02:26:06.873Z,96261.06
2024-03-13T02:28:38.809Z,96264.53
2024-03-13T02:31:11.135Z,96260.25
2024-03-13T02:33:42.084Z,96270.16
2024-03-13T02:36:12.757Z,96267.84
2024-03-13T02:38:46.546Z,96265.41
2024-03-13T02:41:17.372Z,96275.16
2024-03-13T02:43:47.981Z,96270.03
2024-03-13T02:46:19.023Z,96268.41
2024-03-13T02:48:49.678Z,96273.69
2024-03-13T02:51:20.309Z,96270.38
2024-03-13T02:53:53.666Z,96275.03
2024-03-13T02:56:24.542Z,96278.53
2024-03-13T02:58:55.057Z,96273.41
2024-03-13T03:01:25.723Z,96275.03
2024-03-13T03:03:56.427Z,96274.19
2024-03-13T03:06:26.957Z,96277.03
2024-03-13T03:09:00.176Z,96275.38
2024-03-13T03:11:30.736Z,96279.88
2024-03-13T03:14:01.384Z,96280.66
2024-03-13T03:16:32.032Z,96283.31
2024-03-13T03:19:03.262Z,96278.03
2024-03-13T03:21:34.470Z,96285.16
2024-03-13T03:24:08.157Z,96287.97
2024-03-13T03:26:38.821Z,96287.97
2024-03-13T03:29:09.957Z,96286.34
2024-03-13T03:31:41.169Z,96283.84
2024-03-13T03:34:11.755Z,96286.66
2024-03-13T03:36:44.560Z,96282.00
2024-03-13T03:39:19.397Z,96286.66
2024-03-13T03:41:50.322Z,96293.94
2024-03-13T03:44:20.850Z,96290.31
2024-03-13T03:46:51.453Z,96292.31
2024-03-13T03:49:24.421Z,96294.94
2024-03-13T03:51:55.317Z,96294.94
2024-03-13T03:54:28.544Z,96297.50
2024-03-13T03:56:59.538Z,96297.78
2024-03-13T03:59:30.240Z,96303.50
2024-03-13T04:02:00.847Z,96298.63
2024-03-13T04:04:31.534Z,96294.75
2024-03-13T04:07:02.222Z,96302.47
2024-03-13T04:09:35.548Z,96301.22
2024-03-13T04:12:06.233Z,96300.34
2024-03-13T04:14:36.876Z,96312.50
2024-03-13T04:17:08.125Z,96303.81
2024-03-13T04:19:41.145Z,96311.72
2024-03-13T04:22:11.842Z,96308.34
2024-03-13T04:24:45.189Z,96313.78
2024-03-13T04:27:15.845Z,96308.75
2024-03-13T04:32:22.470Z,96309.47
2024-03-13T04:34:53.278Z,96309.94
2024-03-13T04:37:24.905Z,96307.94
2024-03-13T04:40:01.414Z,96308.56
2024-03-13T04:42:34.287Z,96311.69
2024-03-13T04:45:04.979Z,96309.66
2024-03-13T04:47:40.837Z,96310.50
2024-03-13T04:50:13.280Z,96311.31
2024-03-13T04:52:43.879Z,96305.81
2024-03-13T04:55:17.218Z,96324.22
2024-03-13T04:57:48.939Z,96318.53
2024-03-13T05:00:19.832Z,96320.00
2024-03-13T05:02:50.450Z,96324.13
2024-03-13T05:05:22.012Z,96324.97
2024-03-13T05:07:55.965Z,96327.41
2024-03-13T05:10:30.918Z,96330.72
2024-03-13T05:13:02.585Z,96333.19
2024-03-13T05:15:33.246Z,96335.66
2024-03-13T05:18:04.053Z,96337.31
2024-03-13T05:20:35.524Z,96332.81
2024-03-13T05:23:07.948Z,96340.41
2024-03-13T05:25:41.192Z,96330.44
2024-03-13T05:28:11.970Z,96333.72
2024-03-13T05:30:42.606Z,96330.06
2024-03-13T05:33:13.242Z,96341.34
2024-03-13T05:35:43.954Z,96332.19
2024-03-13T05:38:14.955Z,96344.44
2024-03-13T05:40:48.564Z,96344.44
2024-03-13T05:43:21.545Z,96351.38
2024-03-13T05:45:52.229Z,96356.50
2024-03-13T05:48:23.447Z,96346.91
2024-03-13T05:50:55.263Z,96356.69
2024-03-13T05:53:25.930Z,96360.19
2024-03-13T05:55:59.561Z,96363.84
2024-03-13T05:58:30.297Z,96358.53
2024-03-13T06:01:03.365Z,96365.50
2024-03-13T06:03:34.317Z,96362.84
2024-03-13T06:06:05.282Z,96365.31
2024-03-13T06:08:36.140Z,96370.22
2024-03-13T06:11:09.476Z,96374.38
2024-03-13T06:13:40.153Z,96370.31
2024-03-13T06:16:11.071Z,96374.25
2024-03-13T06:18:42.116Z,96370.88
2024-03-13T06:21:12.777Z,96382.41
2024-03-13T06:23:49.678Z,96383.69
2024-03-13T06:26:23.367Z,96386.41
2024-03-13T06:29:06.303Z,96381.38
2024-03-13T06:31:42.167Z,96378.59
2024-03-13T06:34:13.160Z,96374.75
2024-03-13T06:36:43.900Z,96388.28
2024-03-13T06:39:14.860Z,96390.78
2024-03-13T06:41:47.970Z,96387.50
2024-03-13T06:44:19.164Z,96388.28
2024-03-13T06:46:49.782Z,96390.16
2024-03-13T06:49:20.630Z,96383.19
2024-03-13T06:51:51.234Z,96395.47
2024-03-13T06:54:22.158Z,96399.56
2024-03-13T06:56:55.353Z,96387.13
2024-03-13T06:59:26.321Z,96393.75
2024-03-13T07:01:57.717Z,96399.38
2024-03-13T07:04:28.505Z,96397.06
2024-03-13T07:07:00.998Z,96398.69
2024-03-13T07:09:31.894Z,96402.47
2024-03-13T07:12:05.747Z,96398.84
2024-03-13T07:14:36.437Z,96398.25
2024-03-13T07:17:08.433Z,96402.38
2024-03-13T07:19:39.523Z,96401.97
2024-03-13T07:22:11.191Z,96401.78
2024-03-13T07:24:41.787Z,96399.13
2024-03-13T07:27:15.460Z,96402.03
2024-03-13T07:29:46.171Z,96400.84
2024-03-13T07:32:17.768Z,96398.03
2024-03-13T07:34:48.732Z,96404.63
2024-03-13T07:37:19.393Z,96404.06
2024-03-13T07:39:50.064Z,96397.72
2024-03-13T07:42:23.363Z,96397.78
2024-03-13T07:44:56.050Z,96397.84
2024-03-13T07:47:26.791Z,96398.50
2024-03-13T07:49:57.463Z,96403.44
2024-03-13T07:52:30.393Z,96397.09
2024-03-13T07:55:01.241Z,96400.56
2024-03-13T07:57:35.008Z,96395.03
2024-03-13T08:00:05.632Z,96404.69
2024-03-13T08:02:43.976Z,96408.38
2024-03-13T08:05:16.109Z,96397.09
2024-03-13T09:05:56.081Z,96397.31
2024-03-13T09:08:41.351Z,96397.31
2024-03-13T09:11:18.643Z,96407.97
2024-03-13T09:13:49.754Z,96405.13
2024-03-13T09:16:20.502Z,96399.41
2024-03-13T09:18:53.753Z,96405.16
2024-03-13T09:21:24.437Z,96404.75
2024-03-13T09:23:55.388Z,96401.50
2024-03-13T09:26:26.069Z,96395.38
2024-03-13T09:28:57.283Z,96402.75
2024-03-13T09:31:28.440Z,96403.81
2024-03-13T09:34:01.650Z,96400.53
2024-03-13T09:36:32.407Z,96402.00
2024-03-13T09:39:03.120Z,96398.72
2024-03-13T09:41:33.715Z,96403.66
2024-03-13T09:44:06.112Z,96398.94
2024-03-13T09:46:39.099Z,96401.59
2024-03-13T09:49:12.485Z,96408.59
2024-03-13T09:51:45.070Z,96404.72
2024-03-13T09:54:18.389Z,96404.50
2024-03-13T09:56:51.307Z,96402.47
2024-03-13T09:59:21.994Z,96407.41
2024-03-13T10:01:53.371Z,96405.34
2024-03-13T10:04:28.696Z,96408.41
2024-03-13T10:07:03.607Z,96406.19
2024-03-13T10:09:37.225Z,96411.09
2024-03-13T10:12:14.081Z,96411.28
2024-03-13T10:14:47.063Z,96403.72
2024-03-13T10:17:22.961Z,96408.41
2024-03-13T10:19:58.391Z,96404.75
2024-03-13T10:22:29.399Z,96408.22
2024-03-13T10:25:03.018Z,96399.19
2024-03-13T10:27:35.123Z,96403.28
2024-03-13T10:30:06.386Z,96398.78
2024-03-13T10:32:37.857Z,96401.28
2024-03-13T10:35:16.355Z,96400.25
2024-03-13T10:37:47.510Z,96400.06
2024-03-13T10:40:18.250Z,96401.50
2024-03-13T10:42:49.444Z,96400.91
2024-03-13T10:45:22.067Z,96396.19
2024-03-13T10:47:53.483Z,96390.66
2024-03-13T10:50:26.768Z,96386.94
2024-03-13T10:53:00.538Z,96386.94
2024-03-13T10:55:36.860Z,96388.59
2024-03-13T10:58:08.790Z,96389.03
2024-03-13T11:00:40.229Z,96389.44
2024-03-13T11:03:15.019Z,96380.19
2024-03-13T11:05:50.923Z,96384.94
2024-03-13T11:08:23.273Z,96386.56
2024-03-13T11:11:06.887Z,96382.03
2024-03-13T11:13:51.756Z,96385.53
2024-03-13T11:16:25.191Z,96383.06
2024-03-13T11:18:57.065Z,96388.19
2024-03-13T11:21:43.249Z,96386.56
2024-03-13T11:24:16.744Z,96377.53
2024-03-13T11:26:50.549Z,96376.69
2024-03-13T11:29:21.924Z,96371.78
2024-03-13T11:31:54.091Z,96366.03
2024-03-13T11:34:27.008Z,96366.25
2024-03-13T11:37:00.332Z,96367.69
2024-03-13T11:39:31.160Z,96367.06
2024-03-13T11:42:10.553Z,96365.63
2024-03-13T11:44:41.599Z,96361.13
2024-03-13T11:47:16.643Z,96359.25
2024-03-13T11:49:47.764Z,96354.53
2024-03-13T11:52:21.525Z,96364.38
2024-03-13T11:54:52.113Z,96349.56
2024-03-13T11:57:28.486Z,96354.50
2024-03-13T11:59:59.170Z,96345.47
2024-03-13T12:02:46.385Z,96342.38
2024-03-13T12:05:35.459Z,96344.22
2024-03-13T12:08:10.712Z,96342.56
2024-03-13T12:10:42.469Z,96339.25
2024-03-13T12:13:18.943Z,96341.28
2024-03-13T12:15:49.667Z,96339.22
2024-03-13T12:18:20.726Z,96337.19
2024-03-13T12:20:51.893Z,96342.91
2024-03-13T12:23:25.110Z,96332.00
2024-03-13T12:25:57.816Z,96332.41
2024-03-13T12:28:28.697Z,96330.94
2024-03-13T12:31:00.285Z,96332.59
2024-03-13T12:33:31.160Z,96331.97
2024-03-13T12:36:04.477Z,96332.34
2024-03-13T12:38:42.688Z,96326.78
2024-03-13T12:41:13.545Z,96317.28
2024-03-13T12:43:46.110Z,96324.69
2024-03-13T12:46:18.252Z,96319.72
2024-03-13T12:48:51.258Z,96315.63
2024-03-13T12:51:21.956Z,96322.59
2024-03-13T12:53:55.446Z,96316.84
2024-03-13T12:56:28.501Z,96319.72
2024-03-13T12:59:01.274Z,96314.78
2024-03-13T13:01:32.406Z,96318.50
2024-03-13T13:04:03.795Z,96309.91
2024-03-13T13:06:34.489Z,96314.19
2024-03-13T13:09:12.646Z,96314.78
2024-03-13T13:11:45.988Z,96309.91
2024-03-13T13:14:17.284Z,96318.50
2024-03-13T13:16:48.119Z,96318.53
2024-03-13T13:19:18.879Z,96312.41
2024-03-13T13:21:49.441Z,96316.97
2024-03-13T13:24:24.371Z,96317.00
2024-03-13T13:26:55.081Z,96314.13
2024-03-13T13:29:25.627Z,96312.91
2024-03-13T13:31:56.263Z,96305.91
2024-03-13T13:34:26.927Z,96310.44
2024-03-13T13:36:57.610Z,96309.41
2024-03-13T13:39:30.890Z,96311.88
2024-03-13T13:42:01.717Z,96307.97
2024-03-13T13:44:32.341Z,96313.50
2024-03-13T13:47:02.994Z,96313.25
2024-03-13T13:49:33.910Z,96304.16
2024-03-13T13:52:04.463Z,96304.97
2024-03-13T13:54:37.595Z,96309.03
2024-03-13T13:57:08.385Z,96311.91
2024-03-13T13:59:41.398Z,96309.63
2024-03-13T14:02:13.434Z,96310.25
2024-03-13T14:04:44.275Z,96312.69
2024-03-13T14:07:15.359Z,96311.88
2024-03-13T14:09:48.575Z,96312.28
2024-03-13T14:12:24.834Z,96316.22
2024-03-13T14:14:57.483Z,96319.34
2024-03-13T14:17:28.808Z,96320.13
2024-03-13T14:19:59.913Z,96323.06
2024-03-13T14:22:30.474Z,96334.63
2024-03-13T14:25:03.687Z,96331.13
2024-03-13T14:27:34.353Z,96329.53
2024-03-13T14:30:05.040Z,96330.59
2024-03-13T14:32:36.859Z,96337.38
2024-03-13T14:35:10.688Z,96338.22
2024-03-13T14:37:41.651Z,96341.31
2024-03-13T14:40:19.379Z,96341.72
2024-03-13T14:42:50.899Z,96348.50
2024-03-13T14:45:22.190Z,96345.25
2024-03-13T14:47:53.090Z,96360.03
2024-03-13T14:50:23.834Z,96355.09
2024-03-13T14:53:02.965Z,96354.72
2024-03-13T14:55:39.637Z,96359.44
2024-03-13T14:58:11.153Z,96357.00
2024-03-13T15:00:41.973Z,96361.91
2024-03-13T15:03:12.669Z,96363.97
2024-03-13T15:05:44.345Z,96359.88
2024-03-13T15:08:15.487Z,96366.25
2024-03-13T15:10:48.710Z,96370.13
2024-03-13T15:13:19.834Z,96368.47
2024-03-13T15:15:50.431Z,96368.91
2024-03-13T15:18:21.173Z,96368.91
2024-03-13T15:20:51.945Z,96376.31
2024-03-13T15:23:23.494Z,96377.53
2024-03-13T15:25:56.783Z,96377.94
2024-03-13T15:28:27.408Z,96378.38
2024-03-13T15:30:58.035Z,96376.94
2024-03-13T15:33:31.422Z,96386.16
2024-03-13T15:36:02.066Z,96383.47
2024-03-13T15:38:32.833Z,96379.16
2024-03-13T15:41:06.285Z,96396.22
2024-03-13T15:43:36.942Z,96392.94
2024-03-13T15:46:08.250Z,96391.28
2024-03-13T15:48:40.058Z,96400.31
2024-03-13T15:51:10.854Z,96400.50
2024-03-13T15:53:44.721Z,96404.03
2024-03-13T15:56:18.754Z,96409.75
2024-03-13T15:58:49.530Z,96405.44
2024-03-13T16:01:20.103Z,96409.75
2024-03-13T16:03:50.716Z,96410.78
2024-03-13T16:06:22.932Z,96421.47
2024-03-13T16:09:01.398Z,96427.19
2024-03-13T16:11:35.293Z,96431.28
2024-03-13T16:14:07.404Z,96434.16
2024-03-13T16:16:38.325Z,96438.06
2024-03-13T16:19:09.575Z,96433.94
2024-03-13T16:21:40.221Z,96435.19
2024-03-13T16:24:13.209Z,96439.72
2024-03-13T16:26:46.598Z,96436.59
2024-03-13T16:29:17.270Z,96446.66
2024-03-13T16:31:48.231Z,96445.63
2024-03-13T16:34:18.954Z,96456.09
2024-03-13T16:36:49.728Z,96485.34
2024-03-13T16:39:21.484Z,96486.47
2024-03-13T16:41:54.735Z,96487.72
2024-03-13T16:44:25.376Z,96490.19
2024-03-13T16:46:55.995Z,96490.94
2024-03-13T16:49:26.682Z,96486.84
2024-03-13T16:51:57.301Z,96498.91
2024-03-13T16:54:28.762Z,96489.75
2024-03-13T16:57:02.066Z,96491.16
2024-03-13T16:59:33.091Z,96480.84
2024-03-13T17:02:03.901Z,96486.94
2024-03-13T17:04:34.490Z,96485.69
2024-03-13T17:07:05.367Z,96492.91
2024-03-13T17:09:36.079Z,96498.28
2024-03-13T17:12:09.628Z,96495.66
2024-03-13T17:14:41.485Z,96499.19
2024-03-13T17:17:12.219Z,96496.56
2024-03-13T17:19:43.196Z,96500.25
2024-03-13T17:22:14.002Z,96494.50
2024-03-13T17:24:44.738Z,96500.19
2024-03-13T17:27:18.042Z,96495.41
2024-03-13T17:29:48.688Z,96503.56
2024-03-13T17:32:21.037Z,96512.72
2024-03-13T17:34:52.741Z,96512.34
2024-03-13T17:37:23.976Z,96520.72
2024-03-13T17:39:55.716Z,96522.31
2024-03-13T17:42:28.949Z,96528.66
2024-03-13T17:45:00.040Z,96513.94
2024-03-13T17:47:30.853Z,96521.78
2024-03-13T17:50:04.468Z,96527.53
2024-03-13T17:52:35.521Z,96522.78
2024-03-13T17:55:07.752Z,96509.28
2024-03-13T17:57:41.077Z,96522.03
2024-03-13T18:00:12.889Z,96519.19
2024-03-13T18:02:43.852Z,96526.31
2024-03-13T18:05:15.746Z,96518.59
2024-03-13T18:07:48.238Z,96533.25
2024-03-13T18:10:21.454Z,96529.41
2024-03-13T18:12:54.910Z,96535.56
2024-03-13T18:15:25.728Z,96534.59
2024-03-13T18:17:57.033Z,96537.25
2024-03-13T18:20:27.678Z,96538.03
2024-03-13T18:22:58.203Z,96539.69
2024-03-13T18:25:28.797Z,96535.69
2024-03-13T18:28:03.609Z,96539.47
2024-03-13T18:30:36.783Z,96535.34
2024-03-13T18:33:08.335Z,96537.38
2024-03-13T18:35:39.190Z,96539.50
2024-03-13T18:38:09.874Z,96540.53
2024-03-13T18:40:41.062Z,96535.91
2024-03-13T18:43:14.292Z,96536.00
2024-03-13T18:45:44.889Z,96535.28
2024-03-13T18:48:15.709Z,96538.25
2024-03-13T18:50:46.668Z,96537.19
2024-03-13T18:53:17.646Z,96540.16
2024-03-13T18:55:49.397Z,96538.03
2024-03-13T18:58:22.947Z,96537.09
2024-03-13T19:00:53.565Z,96536.31
2024-03-13T19:03:24.220Z,96542.25
2024-03-13T19:05:55.050Z,96547.41
2024-03-13T19:08:29.402Z,96544.13
2024-03-13T19:11:00.104Z,96546.75
2024-03-13T19:13:33.411Z,96544.41
2024-03-13T19:16:04.883Z,96552.41
2024-03-13T19:18:35.740Z,96556.22
2024-03-13T19:21:06.799Z,96553.56
2024-03-13T19:23:38.558Z,96551.19
2024-03-13T19:26:09.146Z,96556.31
2024-03-13T19:28:42.459Z,96549.31
2024-03-13T19:31:17.928Z,96556.03
2024-03-13T19:33:51.183Z,96560.06
2024-03-13T19:36:26.761Z,96555.72
2024-03-13T19:38:57.492Z,96558.00
2024-03-13T19:41:28.191Z,96557.34
2024-03-13T19:44:01.722Z,96558.53
2024-03-13T19:46:32.844Z,96559.34
2024-03-13T19:49:03.749Z,96556.38
2024-03-13T19:51:35.938Z,96561.16
2024-03-13T19:54:06.772Z,96563.19
2024-03-13T19:56:37.479Z,96564.75
2024-03-13T19:59:12.520Z,96561.75
2024-03-13T20:01:43.255Z,96558.28
2024-03-13T20:04:15.021Z,96561.41
2024-03-13T20:06:46.757Z,96562.00
2024-03-13T20:09:19.741Z,96567.31
2024-03-13T20:11:51.453Z,96567.53
2024-03-13T20:14:24.930Z,96566.22
2024-03-13T20:16:55.522Z,96567.34
2024-03-13T20:19:26.297Z,96558.09
2024-03-13T20:21:59.297Z,96562.41
2024-03-13T20:24:29.989Z,96559.06
2024-03-13T20:27:00.670Z,96562.72
2024-03-13T20:29:33.883Z,96563.25
2024-03-13T20:32:04.855Z,96563.13
2024-03-13T20:34:35.540Z,96562.44
2024-03-13T20:37:06.157Z,96560.78
2024-03-13T20:39:36.967Z,96554.84
2024-03-13T20:42:07.845Z,96557.47
2024-03-13T20:44:41.885Z,96553.81
2024-03-13T20:47:13.164Z,96555.34
2024-03-13T20:49:44.333Z,96550.09
2024-03-13T20:52:15.225Z,96554.88
2024-03-13T20:54:47.990Z,96543.75
2024-03-13T20:57:18.709Z,96553.03
2024-03-13T20:59:52.914Z,96545.06
2024-03-13T21:02:23.943Z,96539.28
2024-03-13T21:04:55.423Z,96553.19
2024-03-13T21:07:26.065Z,96541.63
2024-03-13T21:09:56.673Z,96541.66
2024-03-13T21:12:27.376Z,96548.56
2024-03-13T21:15:00.742Z,96551.56
2024-03-13T21:17:31.774Z,96538.47
2024-03-13T21:20:04.232Z,96554.34
2024-03-13T21:22:35.205Z,96550.09
2024-03-13T21:25:05.840Z,96547.28
2024-03-13T21:27:36.575Z,96550.56
2024-03-13T21:30:11.607Z,96550.09
2024-03-13T21:32:42.439Z,96553.88
2024-03-13T21:35:13.465Z,96552.56
2024-03-13T21:37:44.091Z,96555.19
2024-03-13T21:40:17.714Z,96548.59
2024-03-13T21:42:50.212Z,96552.25
2024-03-13T21:45:23.555Z,96550.75
2024-03-13T21:47:54.736Z,96544.59
2024-03-13T21:50:25.306Z,96545.78
2024-03-13T21:52:56.072Z,96550.28
2024-03-13T21:55:28.450Z,96561.03
2024-03-13T21:57:59.001Z,96544.47
2024-03-13T22:00:32.238Z,96538.97
2024-03-13T22:03:03.554Z,96549.75
2024-03-13T22:05:34.196Z,96551.53
2024-03-13T22:08:04.751Z,96542.91
2024-03-13T22:10:40.172Z,96542.31
2024-03-13T22:13:11.440Z,96543.84
2024-03-13T22:15:44.710Z,96545.00
2024-03-13T22:18:15.412Z,96544.34
2024-03-13T22:20:46.182Z,96541.25
2024-03-13T22:23:17.407Z,96547.88
2024-03-13T22:25:47.948Z,96542.28
2024-03-13T22:28:18.615Z,96548.44
2024-03-13T22:30:51.902Z,96541.25
2024-03-13T22:33:22.620Z,96540.16
2024-03-13T22:35:53.227Z,96544.34
2024-03-13T22:38:23.814Z,96543.38
2024-03-13T22:40:54.509Z,96542.38
2024-03-13T22:43:25.226Z,96542.38
2024-03-13T22:45:58.727Z,96541.53
2024-03-13T22:48:29.362Z,96546.34
2024-03-13T22:51:00.077Z,96539.50
2024-03-13T22:53:30.939Z,96546.28
2024-03-13T22:56:01.571Z,96546.09
2024-03-13T22:58:32.133Z,96543.28
2024-03-13T23:01:05.827Z,96542.25
2024-03-13T23:03:36.618Z,96544.88
2024-03-13T23:06:08.818Z,96546.66
2024-03-13T23:08:39.953Z,96545.16
2024-03-13T23:11:10.599Z,96548.78
2024-03-13T23:13:41.562Z,96546.97
2024-03-13T23:16:18.982Z,96550.31
2024-03-13T23:18:49.801Z,96541.88
2024-03-13T23:21:24.038Z,96547.38
2024-03-13T23:23:56.018Z,96546.88
2024-03-13T23:26:26.702Z,96541.94
2024-03-13T23:28:59.748Z,96547.56
2024-03-13T23:31:33.049Z,96538.94
2024-03-13T23:34:05.638Z,96537.28
2024-03-13T23:36:37.958Z,96542.91
2024-03-13T23:39:10.603Z,96540.50
2024-03-13T23:41:42.777Z,96545.97
2024-03-13T23:44:13.385Z,96536.56
2024-03-13T23:46:46.549Z,96539.56
2024-03-13T23:49:17.256Z,96535.06
2024-03-13T23:51:48.111Z,96526.28
2024-03-13T23:54:18.716Z,96531.41
2024-03-13T23:56:50.388Z,96528.13
2024-03-13T23:59:21.630Z,96526.16
